createdAt,value
2022-09-14T00:01:40.239Z,18.80
2022-09-14T00:06:42.624Z,18.80
2022-09-14T00:11:44.697Z,18.70
2022-09-14T00:16:47.512Z,18.70
2022-09-14T00:21:57.773Z,18.70
2022-09-14T00:26:59.489Z,18.70
2022-09-14T00:32:10.831Z,18.70
2022-09-14T00:42:19.455Z,18.50
2022-09-14T00:47:21.310Z,18.50
2022-09-14T00:52:27.402Z,18.70
2022-09-14T00:57:36.027Z,18.60
2022-09-14T01:02:39.284Z,18.70
2022-09-14T01:07:56.942Z,18.70
2022-09-14T01:13:32.729Z,18.70
2022-09-14T01:18:45.946Z,18.60
2022-09-14T01:24:06.201Z,18.70
2022-09-14T01:29:25.317Z,18.80
2022-09-14T01:35:00.276Z,18.80
2022-09-14T01:40:21.605Z,18.80
2022-09-14T01:56:48.725Z,19.00
2022-09-14T02:01:59.308Z,18.30
2022-09-14T02:07:01.236Z,18.30
2022-09-14T02:12:04.029Z,18.40
2022-09-14T02:17:08.179Z,18.30
2022-09-14T02:22:09.899Z,18.30
2022-09-14T02:32:33.215Z,18.10
2022-09-14T02:38:05.263Z,18.20
2022-09-14T02:43:15.513Z,18.20
2022-09-14T02:48:38.859Z,18.30
2022-09-14T02:53:44.428Z,18.30
2022-09-14T02:58:46.447Z,18.30
2022-09-14T03:03:48.137Z,18.30
2022-09-14T03:08:50.312Z,18.40
2022-09-14T03:13:52.106Z,18.80
2022-09-14T03:18:54.043Z,18.30
2022-09-14T03:23:56.950Z,18.30
2022-09-14T03:28:59.343Z,19.70
2022-09-14T03:34:02.163Z,18.40
2022-09-14T03:39:03.909Z,18.30
2022-09-14T03:44:05.643Z,18.30
2022-09-14T03:54:09.363Z,18.30
2022-09-14T03:59:11.121Z,18.30
2022-09-14T04:09:15.186Z,18.30
2022-09-14T04:14:17.674Z,18.30
2022-09-14T04:19:19.330Z,18.40
2022-09-14T04:24:21.401Z,18.50
2022-09-14T04:29:24.020Z,19.00
2022-09-14T04:34:25.794Z,18.40
2022-09-14T04:39:27.504Z,18.50
2022-09-14T04:49:31.368Z,18.40
2022-09-14T04:54:33.106Z,18.40
2022-09-14T04:59:34.941Z,18.50
2022-09-14T05:04:36.666Z,18.50
2022-09-14T05:09:38.318Z,18.50
2022-09-14T05:14:40.006Z,18.50
2022-09-14T05:19:41.806Z,18.50
2022-09-14T05:24:43.563Z,18.80
2022-09-14T05:34:47.407Z,18.40
2022-09-14T05:39:49.303Z,18.30
2022-09-14T05:44:51.245Z,18.20
2022-09-14T05:49:52.859Z,18.20
2022-09-14T05:54:54.584Z,19.50
2022-09-14T05:59:56.585Z,18.70
2022-09-14T06:10:00.646Z,18.50
2022-09-14T06:15:02.399Z,18.60
2022-09-14T06:20:32.842Z,18.70
2022-09-14T06:25:36.383Z,18.80
2022-09-14T06:30:38.137Z,18.80
2022-09-14T06:35:42.051Z,20.50
2022-09-14T06:40:52.313Z,19.10
2022-09-14T06:46:04.779Z,19.20
2022-09-14T06:51:25.159Z,19.20
2022-09-14T06:56:38.307Z,19.20
2022-09-14T07:06:50.776Z,19.50
2022-09-14T07:11:52.649Z,19.50
2022-09-14T07:16:54.337Z,19.50
2022-09-14T07:21:58.323Z,19.60
2022-09-14T07:37:07.965Z,19.70
2022-09-14T07:42:09.796Z,19.80
2022-09-14T07:57:52.132Z,20.00
2022-09-14T08:03:01.099Z,20.20
2022-09-14T08:13:12.567Z,19.90
2022-09-14T08:18:36.240Z,20.10
2022-09-14T08:23:45.330Z,20.00
2022-09-14T08:28:48.615Z,21.20
2022-09-14T08:33:59.451Z,20.50
2022-09-14T08:39:02.019Z,20.50
2022-09-14T08:44:51.960Z,21.40
2022-09-14T08:50:17.205Z,20.40
2022-09-14T08:55:45.919Z,20.30
2022-09-14T09:00:53.546Z,20.30
2022-09-14T09:06:20.592Z,20.50
2022-09-14T09:11:25.420Z,20.30
2022-09-14T09:16:34.857Z,20.30
2022-09-14T09:21:43.222Z,21.20
2022-09-14T09:26:44.994Z,20.80
2022-09-14T09:31:54.324Z,20.90
2022-09-14T09:36:56.464Z,21.30
2022-09-14T09:42:13.986Z,21.30
2022-09-14T09:47:15.785Z,22.30
2022-09-14T09:52:18.017Z,21.70
2022-09-14T09:57:31.751Z,21.80
2022-09-14T10:02:33.753Z,21.80
2022-09-14T10:07:49.999Z,22.00
2022-09-14T10:12:56.515Z,21.80
2022-09-14T10:18:12.118Z,21.40
2022-09-14T10:23:20.119Z,21.40
2022-09-14T10:28:37.191Z,22.10
2022-09-14T10:33:39.155Z,21.90
2022-09-14T10:38:46.499Z,22.00
2022-09-14T10:44:06.140Z,23.20
2022-09-14T10:49:11.486Z,23.20
2022-09-14T10:54:46.434Z,23.10
2022-09-14T10:59:58.129Z,23.20
2022-09-14T11:05:23.057Z,23.40
2022-09-14T11:10:50.835Z,23.30
2022-09-14T11:16:11.243Z,23.30
2022-09-14T11:21:20.873Z,23.10
2022-09-14T11:27:08.381Z,22.80
2022-09-14T11:32:27.540Z,22.80
2022-09-14T11:37:35.046Z,22.90
2022-09-14T11:43:08.588Z,23.10
2022-09-14T11:48:42.288Z,24.20
2022-09-14T11:53:44.936Z,24.40
2022-09-14T11:58:47.049Z,25.10
2022-09-14T12:03:56.205Z,25.20
2022-09-14T12:09:22.668Z,25.70
2022-09-14T12:14:24.263Z,25.70
2022-09-14T12:19:27.202Z,25.00
2022-09-14T12:24:29.872Z,24.80
2022-09-14T12:29:42.675Z,24.80
2022-09-14T12:34:44.331Z,24.70
2022-09-14T12:40:34.831Z,24.70
2022-09-14T12:46:06.032Z,25.00
2022-09-14T12:51:14.333Z,24.30
2022-09-14T12:56:26.338Z,24.00
2022-09-14T13:02:02.173Z,23.70
2022-09-14T13:07:16.076Z,23.50
2022-09-14T13:12:43.733Z,23.30
2022-09-14T13:18:27.312Z,23.20
2022-09-14T13:23:40.955Z,23.10
2022-09-14T13:28:48.406Z,22.80
2022-09-14T13:33:53.035Z,22.40
2022-09-14T13:38:58.009Z,22.30
2022-09-14T13:44:00.196Z,22.40
2022-09-14T13:49:02.053Z,22.10
2022-09-14T13:54:29.609Z,21.80
2022-09-14T13:59:31.382Z,21.60
2022-09-14T14:04:39.273Z,21.40
2022-09-14T14:09:50.875Z,21.10
2022-09-14T14:14:57.910Z,21.00
2022-09-14T14:20:21.191Z,20.80
2022-09-14T14:25:52.125Z,20.70
2022-09-14T14:30:57.625Z,21.10
2022-09-14T14:35:59.883Z,21.10
2022-09-14T14:41:01.898Z,21.10
2022-09-14T14:46:06.818Z,20.90
2022-09-14T14:51:14.129Z,20.70
2022-09-14T14:56:16.821Z,20.70
2022-09-14T15:01:18.601Z,20.70
2022-09-14T15:06:26.311Z,20.90
2022-09-14T15:11:28.069Z,20.60
2022-09-14T15:16:29.858Z,20.60
2022-09-14T15:21:31.664Z,21.20
2022-09-14T15:26:33.918Z,20.60
2022-09-14T15:31:35.663Z,20.60
2022-09-14T15:36:43.378Z,20.60
2022-09-14T15:41:45.288Z,20.70
2022-09-14T15:46:47.143Z,20.80
2022-09-14T15:51:50.606Z,20.90
2022-09-14T15:56:56.753Z,20.80
2022-09-14T16:01:58.625Z,20.80
2022-09-14T16:07:00.289Z,20.80
2022-09-14T16:12:02.259Z,21.20
2022-09-14T16:17:05.411Z,21.10
2022-09-14T16:22:07.359Z,21.50
2022-09-14T16:27:09.023Z,21.80
2022-09-14T16:32:10.750Z,21.40
2022-09-14T16:37:12.478Z,21.10
2022-09-14T16:42:14.127Z,21.00
2022-09-14T16:47:15.848Z,20.90
2022-09-14T16:52:17.579Z,20.30
2022-09-14T16:57:19.338Z,20.60
2022-09-14T17:02:21.076Z,20.50
2022-09-14T17:07:23.760Z,20.90
2022-09-14T17:12:25.469Z,20.70
2022-09-14T17:17:27.245Z,20.20
2022-09-14T17:22:31.461Z,20.10
2022-09-14T17:27:33.181Z,19.90
2022-09-14T17:32:34.854Z,20.00
2022-09-14T17:37:36.562Z,19.90
2022-09-14T17:42:38.215Z,19.60
2022-09-14T17:47:39.883Z,20.10
2022-09-14T17:52:41.489Z,19.30
2022-09-14T17:57:43.500Z,19.30
2022-09-14T18:02:50.872Z,19.90
2022-09-14T18:07:52.593Z,19.80
2022-09-14T18:12:54.248Z,19.50
2022-09-14T18:17:56.014Z,19.40
2022-09-14T18:22:57.663Z,19.40
2022-09-14T18:27:59.286Z,19.80
2022-09-14T18:33:01.634Z,19.00
2022-09-14T18:38:03.749Z,22.80
2022-09-14T18:43:05.382Z,18.90
2022-09-14T18:48:07.033Z,19.00
2022-09-14T18:53:08.956Z,19.10
2022-09-14T18:58:10.657Z,19.10
2022-09-14T19:03:12.753Z,19.10
2022-09-14T19:08:14.428Z,19.20
2022-09-14T19:13:16.217Z,19.10
2022-09-14T19:18:17.870Z,19.10
2022-09-14T19:23:20.586Z,19.30
2022-09-14T19:28:22.254Z,19.90
2022-09-14T19:33:23.937Z,17.30
2022-09-14T19:38:25.577Z,19.30
2022-09-14T19:43:27.906Z,19.20
2022-09-14T19:48:29.887Z,19.00
2022-09-14T19:53:33.316Z,18.70
2022-09-14T19:58:38.359Z,18.70
2022-09-14T20:03:41.060Z,18.60
2022-09-14T20:08:42.888Z,18.50
2022-09-14T20:13:45.009Z,18.40
2022-09-14T20:18:48.404Z,19.70
2022-09-14T20:24:14.996Z,18.10
2022-09-14T20:29:19.224Z,17.90
2022-09-14T20:34:21.779Z,18.10
2022-09-14T20:39:24.167Z,18.20
2022-09-14T20:49:28.127Z,18.10
2022-09-14T20:54:30.376Z,18.00
2022-09-14T20:59:32.482Z,17.60
2022-09-14T21:04:34.741Z,18.20
2022-09-14T21:09:37.223Z,17.90
2022-09-14T21:14:38.999Z,17.90
2022-09-14T21:19:40.705Z,18.80
2022-09-14T21:24:42.401Z,18.00
2022-09-14T21:29:44.081Z,17.90
2022-09-14T21:34:45.978Z,17.90
2022-09-14T21:39:47.813Z,17.90
2022-09-14T21:44:50.434Z,17.80
2022-09-14T21:49:52.125Z,17.80
2022-09-14T21:54:53.874Z,18.90
2022-09-14T21:59:55.677Z,17.60
2022-09-14T22:04:58.419Z,17.60
2022-09-14T22:10:00.133Z,17.60
2022-09-14T22:15:01.896Z,17.40
2022-09-14T22:20:03.905Z,17.40
2022-09-14T22:25:06.224Z,17.30
2022-09-14T22:30:08.940Z,17.30
2022-09-14T22:35:10.829Z,17.30
2022-09-14T22:40:12.680Z,17.40
2022-09-14T22:45:14.565Z,17.30
2022-09-14T22:50:16.899Z,17.30
2022-09-14T22:55:18.605Z,17.30
2022-09-14T23:00:21.663Z,17.40
2022-09-14T23:05:23.474Z,17.30
2022-09-14T23:10:25.646Z,17.20
2022-09-14T23:15:27.663Z,17.10
2022-09-14T23:25:35.377Z,17.10
2022-09-14T23:35:39.394Z,17.30
2022-09-14T23:40:42.369Z,17.20
2022-09-14T23:45:45.586Z,17.30
2022-09-14T23:51:00.001Z,17.30
2022-09-14T23:56:02.662Z,17.50
